createdAt,value
2023-06-23T00:04:15.862Z,9.50
2023-06-23T00:06:37.614Z,9.10
2023-06-23T00:09:02.089Z,10.07
2023-06-23T00:11:23.783Z,9.98
2023-06-23T00:13:45.470Z,9.50
2023-06-23T00:16:08.841Z,9.80
2023-06-23T00:18:30.520Z,9.90
2023-06-23T00:20:55.694Z,9.73
2023-06-23T00:23:17.621Z,9.77
2023-06-23T00:25:40.272Z,10.47
2023-06-23T00:28:02.039Z,9.53
2023-06-23T00:30:23.745Z,10.80
2023-06-23T00:32:45.512Z,10.93
2023-06-23T00:35:14.363Z,10.70
2023-06-23T00:37:40.493Z,10.83
2023-06-23T00:40:02.116Z,10.47
2023-06-23T00:42:24.735Z,11.30
2023-06-23T00:44:46.385Z,10.83
2023-06-23T00:47:10.152Z,11.60
2023-06-23T00:49:32.042Z,11.10
2023-06-23T00:51:55.138Z,11.30
2023-06-23T00:54:16.830Z,11.70
2023-06-23T00:56:38.490Z,12.30
2023-06-23T00:59:03.890Z,12.07
2023-06-23T01:01:26.646Z,12.37
2023-06-23T01:03:49.281Z,12.10
2023-06-23T01:07:17.607Z,12.27
2023-06-23T01:10:08.077Z,11.80
2023-06-23T01:12:44.648Z,12.73
2023-06-23T01:15:17.244Z,12.33
2023-06-23T01:18:10.950Z,12.60
2023-06-23T01:20:37.965Z,12.67
2023-06-23T01:23:26.075Z,12.77
2023-06-23T01:25:55.663Z,13.47
2023-06-23T01:28:45.867Z,13.23
2023-06-23T01:31:15.092Z,13.83
2023-06-23T01:33:49.823Z,13.63
2023-06-23T01:36:34.664Z,14.33
2023-06-23T01:39:02.533Z,14.90
2023-06-23T01:41:33.550Z,15.67
2023-06-23T01:43:58.173Z,15.90
2023-06-23T01:46:27.152Z,16.63
2023-06-23T01:48:51.793Z,17.13
2023-06-23T01:51:15.503Z,16.85
2023-06-23T01:53:39.655Z,17.95
2023-06-23T01:56:05.392Z,16.58
2023-06-23T01:58:29.913Z,17.27
2023-06-23T02:00:53.340Z,17.58
2023-06-23T02:03:17.955Z,17.17
2023-06-23T02:05:46.967Z,18.50
2023-06-23T02:08:10.593Z,17.27
2023-06-23T02:10:33.641Z,18.00
2023-06-23T02:12:59.006Z,18.43
2023-06-23T02:15:24.476Z,18.73
2023-06-23T02:17:48.557Z,18.53
2023-06-23T02:20:17.191Z,18.33
2023-06-23T02:22:40.117Z,18.43
2023-06-23T02:25:02.271Z,18.70
2023-06-23T02:27:25.740Z,19.40
2023-06-23T02:29:50.158Z,19.03
2023-06-23T02:32:18.059Z,20.25
2023-06-23T02:34:39.779Z,20.03
2023-06-23T02:37:07.455Z,20.10
2023-06-23T02:39:38.888Z,20.87
2023-06-23T02:42:03.071Z,21.97
2023-06-23T02:44:35.848Z,22.38
2023-06-23T02:47:01.865Z,23.03
2023-06-23T02:49:30.048Z,24.73
2023-06-23T02:51:58.912Z,24.60
2023-06-23T02:54:20.606Z,25.97
2023-06-23T02:56:46.594Z,26.40
2023-06-23T02:59:16.955Z,26.63
2023-06-23T03:01:43.772Z,28.43
2023-06-23T03:04:05.869Z,28.93
2023-06-23T03:06:27.590Z,30.23
2023-06-23T03:08:50.483Z,30.00
2023-06-23T03:11:12.979Z,29.45
2023-06-23T03:13:34.646Z,28.33
2023-06-23T03:16:04.936Z,29.17
2023-06-23T03:18:32.629Z,29.30
2023-06-23T03:21:03.404Z,28.10
2023-06-23T03:23:28.587Z,28.93
2023-06-23T03:25:51.556Z,29.33
2023-06-23T03:28:22.729Z,29.67
2023-06-23T03:30:49.796Z,28.17
2023-06-23T03:33:25.692Z,28.50
2023-06-23T03:35:50.623Z,28.27
2023-06-23T03:38:19.027Z,29.10
2023-06-23T03:41:03.660Z,29.67
2023-06-23T03:43:33.755Z,28.83
2023-06-23T03:46:06.611Z,27.70
2023-06-23T03:48:33.854Z,28.23
2023-06-23T03:50:59.591Z,28.77
2023-06-23T03:53:23.552Z,29.73
2023-06-23T03:55:49.999Z,29.20
2023-06-23T03:58:15.202Z,30.17
2023-06-23T04:00:40.074Z,29.43
2023-06-23T04:03:09.159Z,31.23
2023-06-23T04:05:34.954Z,30.27
2023-06-23T04:08:01.790Z,31.23
2023-06-23T04:10:26.238Z,30.13
2023-06-23T04:12:50.384Z,30.80
2023-06-23T04:15:14.854Z,31.48
2023-06-23T04:20:08.599Z,31.13
2023-06-23T04:22:32.132Z,30.33
2023-06-23T04:24:57.682Z,32.47
2023-06-23T04:27:22.701Z,31.07
2023-06-23T04:29:47.934Z,33.13
2023-06-23T04:32:11.984Z,33.33
2023-06-23T04:34:33.946Z,32.42
2023-06-23T04:37:21.119Z,33.50
2023-06-23T04:39:55.263Z,32.10
2023-06-23T04:42:24.831Z,32.83
2023-06-23T04:44:56.325Z,32.57
2023-06-23T04:47:23.165Z,33.23
2023-06-23T04:49:53.892Z,33.87
2023-06-23T04:52:19.798Z,34.43
2023-06-23T04:54:48.115Z,34.93
2023-06-23T04:57:16.783Z,35.37
2023-06-23T04:59:42.512Z,35.53
2023-06-23T05:02:07.579Z,34.33
2023-06-23T05:04:35.232Z,35.43
2023-06-23T05:06:58.890Z,34.70
2023-06-23T05:09:23.837Z,35.63
2023-06-23T05:11:48.516Z,36.30
2023-06-23T05:14:12.578Z,34.73
2023-06-23T05:16:37.317Z,35.72
2023-06-23T05:19:03.048Z,34.90
2023-06-23T05:21:28.843Z,35.07
2023-06-23T05:23:55.671Z,35.67
2023-06-23T05:26:17.900Z,36.03
2023-06-23T05:28:42.993Z,35.63
2023-06-23T05:31:09.804Z,35.05
2023-06-23T05:33:37.962Z,35.97
2023-06-23T05:36:03.797Z,34.67
2023-06-23T05:38:30.282Z,36.80
2023-06-23T05:40:52.445Z,35.63
2023-06-23T05:43:14.266Z,36.97
2023-06-23T05:45:36.182Z,37.80
2023-06-23T05:48:15.220Z,35.57
2023-06-23T05:50:40.536Z,35.73
2023-06-23T05:53:08.941Z,36.40
2023-06-23T05:55:35.654Z,35.60
2023-06-23T05:58:06.446Z,34.13
2023-06-23T06:00:35.692Z,36.87
2023-06-23T06:03:03.515Z,38.57
2023-06-23T06:05:28.801Z,36.13
2023-06-23T06:07:51.714Z,36.63
2023-06-23T06:10:15.454Z,35.17
2023-06-23T06:12:41.190Z,36.13
2023-06-23T06:15:07.006Z,37.37
2023-06-23T06:17:31.770Z,36.40
2023-06-23T06:20:00.892Z,36.70
2023-06-23T06:22:26.299Z,37.93
2023-06-23T06:27:11.102Z,37.40
2023-06-23T06:29:37.329Z,37.57
2023-06-23T06:32:00.932Z,37.50
2023-06-23T06:34:25.727Z,35.25
2023-06-23T06:36:48.809Z,37.57
2023-06-23T06:39:12.900Z,36.90
2023-06-23T06:41:37.656Z,37.42
2023-06-23T06:43:59.788Z,37.87
2023-06-23T06:46:21.870Z,38.30
2023-06-23T06:48:48.165Z,38.72
2023-06-23T06:51:12.323Z,35.65
2023-06-23T06:53:34.377Z,35.55
2023-06-23T06:55:58.380Z,34.85
2023-06-23T06:58:20.338Z,32.97
2023-06-23T07:00:44.230Z,31.02
2023-06-23T07:03:06.909Z,30.98
2023-06-23T07:05:29.600Z,30.15
2023-06-23T07:07:51.729Z,30.75
2023-06-23T07:10:13.711Z,30.58
2023-06-23T07:12:35.671Z,28.58
2023-06-23T07:14:57.753Z,25.67
2023-06-23T07:17:19.435Z,27.63
2023-06-23T07:19:41.804Z,28.55
2023-06-23T07:22:03.666Z,27.35
2023-06-23T07:24:26.126Z,27.63
2023-06-23T07:26:48.682Z,28.40
2023-06-23T07:29:12.119Z,26.38
2023-06-23T07:31:36.497Z,26.20
2023-06-23T07:33:58.427Z,25.35
2023-06-23T07:36:20.099Z,27.80
2023-06-23T07:38:43.130Z,27.80
2023-06-23T07:41:05.950Z,27.25
2023-06-23T07:43:27.585Z,26.58
2023-06-23T07:45:49.569Z,27.08
2023-06-23T07:48:11.273Z,26.58
2023-06-23T07:50:33.191Z,24.73
2023-06-23T07:52:55.890Z,23.30
2023-06-23T07:55:21.870Z,22.70
2023-06-23T07:57:43.541Z,24.50
2023-06-23T08:00:06.273Z,22.77
2023-06-23T08:02:35.807Z,21.90
2023-06-23T08:04:57.584Z,20.17
2023-06-23T08:07:19.493Z,19.67
2023-06-23T08:09:41.228Z,20.02
2023-06-23T08:12:02.993Z,17.92
2023-06-23T08:14:24.751Z,18.40
2023-06-23T08:16:49.149Z,19.13
2023-06-23T08:21:35.317Z,21.42
2023-06-23T08:23:57.025Z,21.70
2023-06-23T08:26:19.523Z,19.40
2023-06-23T08:28:41.343Z,18.88
2023-06-23T08:31:03.153Z,17.73
2023-06-23T08:33:24.945Z,17.67
2023-06-23T08:35:46.842Z,16.33
2023-06-23T08:38:08.737Z,18.73
2023-06-23T08:40:31.641Z,15.13
2023-06-23T08:42:54.442Z,15.45
2023-06-23T08:45:20.333Z,14.60
2023-06-23T08:47:54.173Z,16.90
2023-06-23T08:50:16.892Z,16.55
2023-06-23T08:52:41.109Z,16.38
2023-06-23T08:55:05.889Z,15.85
2023-06-23T08:57:27.872Z,17.80
2023-06-23T08:59:49.571Z,18.13
2023-06-23T09:02:11.323Z,18.33
2023-06-23T09:04:33.174Z,18.50
2023-06-23T09:06:55.175Z,18.10
2023-06-23T09:09:17.724Z,15.00
2023-06-23T09:11:39.615Z,13.52
2023-06-23T09:14:07.177Z,12.82
2023-06-23T09:16:29.078Z,12.23
2023-06-23T09:18:52.786Z,13.20
2023-06-23T09:21:15.123Z,13.50
2023-06-23T09:23:36.898Z,13.02
2023-06-23T09:25:59.991Z,13.82
2023-06-23T09:28:24.118Z,12.80
2023-06-23T09:30:45.887Z,14.07
2023-06-23T09:33:07.595Z,11.40
2023-06-23T09:35:29.327Z,10.75
2023-06-23T09:37:51.204Z,12.52
2023-06-23T09:40:12.991Z,11.70
2023-06-23T09:42:34.696Z,13.00
2023-06-23T09:44:56.455Z,12.90
2023-06-23T09:47:19.901Z,12.38
2023-06-23T09:49:45.219Z,12.70
2023-06-23T09:52:09.110Z,11.43
2023-06-23T09:54:35.264Z,11.25
2023-06-23T09:57:15.249Z,11.88
2023-06-23T09:59:42.570Z,12.30
2023-06-23T10:02:04.685Z,12.57
2023-06-23T10:04:32.568Z,14.80
2023-06-23T10:06:54.250Z,12.25
2023-06-23T10:09:15.983Z,11.23
2023-06-23T10:11:41.869Z,13.43
2023-06-23T10:14:12.641Z,13.65
2023-06-23T10:16:38.428Z,13.57
2023-06-23T10:19:01.064Z,13.07
2023-06-23T10:21:24.543Z,11.82
2023-06-23T10:23:49.347Z,10.52
2023-06-23T10:26:12.972Z,11.38
2023-06-23T10:28:37.746Z,11.35
2023-06-23T10:31:04.090Z,12.13
2023-06-23T10:33:29.030Z,13.10
2023-06-23T10:35:55.175Z,11.90
2023-06-23T10:38:25.842Z,11.68
2023-06-23T10:40:52.259Z,11.25
2023-06-23T10:43:14.296Z,10.45
2023-06-23T10:45:36.865Z,8.80
2023-06-23T10:47:59.773Z,8.88
2023-06-23T10:50:23.653Z,11.43
2023-06-23T10:52:45.449Z,9.68
2023-06-23T10:55:38.148Z,10.60
2023-06-23T10:58:19.645Z,10.45
2023-06-23T11:00:56.481Z,8.85
2023-06-23T11:03:37.155Z,8.48
2023-06-23T11:06:05.295Z,8.80
2023-06-23T11:08:37.438Z,9.20
2023-06-23T11:11:05.746Z,9.40
2023-06-23T11:13:52.897Z,9.05
2023-06-23T11:16:27.093Z,8.15
2023-06-23T11:18:56.210Z,8.57
2023-06-23T11:21:31.392Z,8.65
2023-06-23T11:24:12.336Z,6.97
2023-06-23T11:26:34.230Z,8.10
2023-06-23T11:28:56.854Z,7.78
2023-06-23T11:31:22.015Z,7.22
2023-06-23T11:33:59.319Z,7.22
2023-06-23T11:36:21.431Z,8.20
2023-06-23T11:38:45.334Z,8.07
2023-06-23T11:41:07.852Z,7.93
2023-06-23T11:43:43.544Z,7.60
2023-06-23T11:46:14.904Z,7.00
2023-06-23T11:48:41.178Z,7.70
2023-06-23T11:51:06.448Z,8.15
2023-06-23T11:53:28.515Z,7.65
2023-06-23T11:55:51.340Z,7.13
2023-06-23T11:58:13.086Z,7.20
2023-06-23T12:00:34.796Z,6.93
2023-06-23T12:02:56.565Z,6.10
2023-06-23T12:05:18.475Z,6.32
2023-06-23T12:07:40.308Z,6.00
2023-06-23T12:10:03.520Z,6.82
2023-06-23T12:12:25.289Z,6.30
2023-06-23T12:14:46.937Z,6.60
2023-06-23T12:17:11.337Z,5.80
2023-06-23T12:19:34.017Z,5.80
2023-06-23T12:21:56.004Z,6.57
2023-06-23T12:24:20.583Z,7.30
2023-06-23T12:26:42.940Z,6.60
2023-06-23T12:29:12.710Z,6.50
2023-06-23T12:31:34.688Z,5.82
2023-06-23T12:33:57.779Z,5.63
2023-06-23T12:36:19.494Z,5.07
2023-06-23T12:38:41.616Z,4.88
2023-06-23T12:41:21.527Z,4.65
2023-06-23T12:43:43.732Z,4.47
2023-06-23T12:46:05.667Z,5.00
2023-06-23T12:48:28.706Z,5.13
2023-06-23T12:50:55.798Z,4.50
2023-06-23T12:53:17.460Z,3.45
2023-06-23T12:55:40.099Z,3.85
2023-06-23T12:58:01.802Z,4.35
2023-06-23T13:00:23.923Z,4.38
2023-06-23T13:02:47.474Z,4.07
2023-06-23T13:05:09.541Z,4.93
2023-06-23T13:07:31.275Z,4.05
2023-06-23T13:09:53.199Z,4.00
2023-06-23T13:12:16.607Z,4.13
2023-06-23T13:14:38.346Z,3.83
2023-06-23T13:17:00.150Z,3.55
2023-06-23T13:19:21.850Z,3.28
2023-06-23T13:21:46.037Z,3.53
2023-06-23T13:26:29.549Z,3.63
2023-06-23T13:28:51.261Z,3.22
2023-06-23T13:31:13.005Z,3.33
2023-06-23T13:33:34.696Z,3.33
2023-06-23T13:35:56.499Z,3.72
2023-06-23T13:38:18.259Z,3.40
2023-06-23T13:40:40.005Z,3.67
2023-06-23T13:43:02.550Z,3.28
2023-06-23T13:45:24.389Z,4.10
2023-06-23T13:47:46.089Z,3.25
2023-06-23T13:50:13.875Z,3.50
2023-06-23T13:52:35.715Z,3.63
2023-06-23T13:54:57.468Z,3.80
2023-06-23T13:57:21.855Z,3.28
2023-06-23T13:59:44.391Z,3.17
2023-06-23T14:02:06.721Z,3.00
2023-06-23T14:04:28.414Z,3.13
2023-06-23T14:06:50.632Z,3.38
2023-06-23T14:09:12.326Z,3.35
2023-06-23T14:11:34.039Z,3.22
2023-06-23T14:13:55.825Z,3.72
2023-06-23T14:16:17.987Z,3.00
2023-06-23T14:18:39.999Z,3.40
2023-06-23T14:21:01.741Z,3.30
2023-06-23T14:23:24.477Z,3.75
2023-06-23T14:25:46.502Z,3.60
2023-06-23T14:28:08.176Z,3.10
2023-06-23T14:30:29.987Z,3.20
2023-06-23T14:32:51.975Z,3.22
2023-06-23T14:35:13.722Z,3.30
2023-06-23T14:37:35.400Z,3.50
2023-06-23T14:39:57.068Z,3.28
2023-06-23T14:42:19.239Z,3.85
2023-06-23T14:44:41.075Z,4.45
2023-06-23T14:47:02.898Z,3.55
2023-06-23T14:49:25.190Z,3.55
2023-06-23T14:51:47.012Z,3.38
2023-06-23T14:54:08.847Z,3.47
2023-06-23T14:56:30.553Z,3.35
2023-06-23T14:58:52.240Z,3.28
2023-06-23T15:01:13.861Z,3.55
2023-06-23T15:03:37.192Z,3.22
2023-06-23T15:05:59.071Z,3.15
2023-06-23T15:08:22.698Z,3.20
2023-06-23T15:10:44.634Z,3.40
2023-06-23T15:13:06.365Z,3.17
2023-06-23T15:15:28.017Z,3.20
2023-06-23T15:17:49.658Z,3.10
2023-06-23T15:20:11.992Z,3.28
2023-06-23T15:22:33.988Z,2.90
2023-06-23T15:24:55.693Z,2.80
2023-06-23T15:27:17.567Z,3.10
2023-06-23T15:29:39.334Z,2.83
2023-06-23T15:32:01.005Z,2.90
2023-06-23T15:34:24.122Z,3.30
2023-06-23T15:36:45.816Z,2.88
2023-06-23T15:39:07.626Z,3.03
2023-06-23T15:41:29.470Z,3.17
2023-06-23T15:43:51.136Z,3.30
2023-06-23T15:46:12.779Z,3.25
2023-06-23T15:48:34.839Z,2.85
2023-06-23T15:50:56.700Z,2.97
2023-06-23T15:53:19.294Z,3.17
2023-06-23T15:55:41.147Z,2.90
2023-06-23T15:58:03.022Z,3.50
2023-06-23T16:00:25.133Z,3.35
2023-06-23T16:02:46.982Z,3.40
2023-06-23T16:05:08.944Z,3.35
2023-06-23T16:07:30.689Z,3.67
2023-06-23T16:09:53.036Z,3.50
2023-06-23T16:12:14.874Z,3.25
2023-06-23T16:14:36.517Z,3.00
2023-06-23T16:17:00.486Z,3.15
2023-06-23T16:19:22.227Z,3.00
2023-06-23T16:21:48.528Z,4.15
2023-06-23T16:24:11.226Z,3.20
2023-06-23T16:26:32.936Z,3.10
2023-06-23T16:28:54.720Z,3.40
2023-06-23T16:31:16.483Z,3.10
2023-06-23T16:33:38.311Z,3.20
2023-06-23T16:36:00.059Z,3.42
2023-06-23T16:38:21.728Z,3.67
2023-06-23T16:40:45.658Z,3.25
2023-06-23T16:43:07.391Z,3.00
2023-06-23T16:45:29.883Z,2.72
2023-06-23T16:47:51.668Z,3.33
2023-06-23T16:50:14.898Z,2.75
2023-06-23T16:52:36.643Z,3.13
2023-06-23T16:54:58.518Z,2.97
2023-06-23T16:57:20.268Z,3.30
2023-06-23T16:59:42.743Z,3.30
2023-06-23T17:02:04.841Z,3.38
2023-06-23T17:04:26.536Z,4.30
2023-06-23T17:06:48.521Z,3.40
2023-06-23T17:09:11.004Z,4.00
2023-06-23T17:11:32.699Z,3.40
2023-06-23T17:13:54.414Z,4.18
2023-06-23T17:16:16.092Z,3.42
2023-06-23T17:18:37.790Z,4.15
2023-06-23T17:20:59.436Z,4.00
2023-06-23T17:23:21.176Z,4.03
2023-06-23T17:25:42.931Z,4.10
2023-06-23T17:28:04.716Z,3.80
2023-06-23T17:30:26.948Z,3.90
2023-06-23T17:32:48.867Z,4.18
2023-06-23T17:35:11.397Z,3.90
2023-06-23T17:37:33.227Z,3.75
2023-06-23T17:39:54.934Z,3.95
2023-06-23T17:42:16.716Z,4.15
2023-06-23T17:44:38.565Z,3.95
2023-06-23T17:47:00.344Z,4.28
2023-06-23T17:49:22.106Z,4.18
2023-06-23T17:51:44.562Z,4.82
2023-06-23T17:54:07.014Z,4.88
2023-06-23T17:56:29.355Z,5.05
2023-06-23T17:58:51.410Z,6.13
2023-06-23T18:01:13.401Z,6.00
2023-06-23T18:03:36.142Z,5.50
2023-06-23T18:05:58.150Z,4.50
2023-06-23T18:08:19.874Z,5.05
2023-06-23T18:10:42.363Z,5.03
2023-06-23T18:13:04.122Z,5.43
2023-06-23T18:15:26.194Z,5.60
2023-06-23T18:17:48.216Z,5.50
2023-06-23T18:20:10.601Z,5.38
2023-06-23T18:22:32.403Z,4.97
2023-06-23T18:24:54.090Z,5.63
2023-06-23T18:27:15.916Z,5.30
2023-06-23T18:29:37.597Z,5.53
2023-06-23T18:32:08.309Z,6.50
2023-06-23T18:34:30.097Z,6.32
2023-06-23T18:36:52.553Z,6.55
2023-06-23T18:39:14.541Z,7.47
2023-06-23T18:41:36.949Z,7.47
2023-06-23T18:43:58.721Z,6.80
2023-06-23T18:46:20.434Z,7.35
2023-06-23T18:48:42.063Z,7.53
2023-06-23T18:51:04.036Z,7.28
2023-06-23T18:53:26.279Z,7.05
2023-06-23T18:55:47.995Z,7.60
2023-06-23T18:58:10.000Z,7.88
2023-06-23T19:00:34.285Z,7.50
2023-06-23T19:02:56.602Z,7.88
2023-06-23T19:05:18.585Z,7.50
2023-06-23T19:07:40.291Z,7.63
2023-06-23T19:10:02.356Z,7.35
2023-06-23T19:12:24.156Z,7.35
2023-06-23T19:14:45.822Z,7.88
2023-06-23T19:17:09.826Z,7.13
2023-06-23T19:19:31.502Z,6.82
2023-06-23T19:21:53.282Z,5.97
2023-06-23T19:24:14.957Z,6.72
2023-06-23T19:26:36.753Z,6.70
2023-06-23T19:28:58.391Z,6.55
2023-06-23T19:31:20.059Z,6.60
2023-06-23T19:33:42.089Z,6.45
2023-06-23T19:36:04.365Z,7.05
2023-06-23T19:38:26.263Z,6.57
2023-06-23T19:40:48.036Z,6.53
2023-06-23T19:43:09.917Z,6.68
2023-06-23T19:45:32.620Z,8.10
2023-06-23T19:47:54.968Z,8.00
2023-06-23T19:50:16.777Z,8.30
2023-06-23T19:52:38.492Z,7.75
2023-06-23T19:55:00.214Z,9.15
2023-06-23T19:57:22.473Z,9.07
2023-06-23T19:59:44.315Z,8.90
2023-06-23T20:02:07.235Z,8.65
2023-06-23T20:04:29.438Z,9.48
2023-06-23T20:06:51.108Z,9.95
2023-06-23T20:09:12.943Z,9.27
2023-06-23T20:11:34.657Z,10.52
2023-06-23T20:13:56.485Z,9.70
2023-06-23T20:16:18.326Z,9.25
2023-06-23T20:18:41.426Z,9.43
2023-06-23T20:21:03.381Z,9.20
2023-06-23T20:23:25.010Z,8.85
2023-06-23T20:25:46.708Z,9.65
2023-06-23T20:28:08.374Z,9.50
2023-06-23T20:30:30.037Z,9.25
2023-06-23T20:32:52.780Z,9.77
2023-06-23T20:35:14.739Z,9.75
2023-06-23T20:37:37.285Z,10.20
2023-06-23T20:40:00.024Z,10.80
2023-06-23T20:42:22.026Z,10.20
2023-06-23T20:44:44.748Z,10.27
2023-06-23T20:47:07.068Z,10.10
2023-06-23T20:49:28.818Z,10.63
2023-06-23T20:51:50.871Z,10.65
2023-06-23T20:54:12.534Z,11.63
2023-06-23T20:56:34.379Z,9.75
2023-06-23T20:58:56.137Z,9.98
2023-06-23T21:01:17.965Z,9.27
2023-06-23T21:03:39.698Z,9.65
2023-06-23T21:06:02.538Z,10.52
2023-06-23T21:08:24.738Z,10.32
2023-06-23T21:10:46.486Z,10.63
2023-06-23T21:13:08.275Z,10.18
2023-06-23T21:15:30.036Z,9.95
2023-06-23T21:17:56.228Z,9.30
2023-06-23T21:20:18.158Z,10.05
2023-06-23T21:22:39.825Z,9.40
2023-06-23T21:25:01.848Z,9.30
2023-06-23T21:27:24.368Z,9.57
2023-06-23T21:29:46.518Z,9.32
2023-06-23T21:32:09.341Z,9.80
2023-06-23T21:34:31.139Z,9.82
2023-06-23T21:36:52.999Z,10.63
2023-06-23T21:39:14.757Z,10.07
2023-06-23T21:41:36.394Z,10.35
2023-06-23T21:43:58.059Z,9.90
2023-06-23T21:46:20.009Z,11.00
2023-06-23T21:48:42.687Z,10.20
2023-06-23T21:51:04.419Z,10.43
2023-06-23T21:53:26.214Z,10.07
2023-06-23T21:55:47.913Z,10.50
2023-06-23T21:58:09.576Z,11.07
2023-06-23T22:00:31.407Z,10.93
2023-06-23T22:02:53.234Z,12.80
2023-06-23T22:05:15.302Z,13.23
2023-06-23T22:07:37.072Z,12.75
2023-06-23T22:09:58.792Z,14.45
2023-06-23T22:12:20.441Z,14.88
2023-06-23T22:14:42.281Z,14.00
2023-06-23T22:17:04.415Z,14.30
2023-06-23T22:19:26.254Z,14.10
2023-06-23T22:21:47.930Z,14.73
2023-06-23T22:24:09.678Z,13.63
2023-06-23T22:26:31.910Z,13.68
2023-06-23T22:28:53.874Z,13.02
2023-06-23T22:31:16.706Z,13.68
2023-06-23T22:33:38.616Z,13.30
2023-06-23T22:36:00.412Z,13.38
2023-06-23T22:38:22.092Z,13.73
2023-06-23T22:40:43.825Z,12.40
2023-06-23T22:43:06.320Z,12.48
2023-06-23T22:45:28.088Z,12.63
2023-06-23T22:47:49.755Z,13.35
2023-06-23T22:50:11.644Z,14.57
2023-06-23T22:52:33.582Z,14.02
2023-06-23T22:54:55.276Z,14.45
2023-06-23T22:57:16.987Z,14.45
2023-06-23T22:59:38.819Z,14.50
2023-06-23T23:02:00.451Z,14.30
2023-06-23T23:04:22.234Z,14.65
2023-06-23T23:06:44.605Z,14.15
2023-06-23T23:09:06.550Z,13.82
2023-06-23T23:11:28.325Z,13.55
2023-06-23T23:13:50.189Z,13.88
2023-06-23T23:16:13.802Z,13.45
2023-06-23T23:18:35.781Z,13.25
2023-06-23T23:20:57.433Z,13.13
2023-06-23T23:23:20.376Z,13.18
2023-06-23T23:25:42.256Z,14.18
2023-06-23T23:28:04.077Z,14.60
2023-06-23T23:30:25.837Z,14.82
2023-06-23T23:32:50.840Z,15.93
2023-06-23T23:35:12.551Z,15.38
2023-06-23T23:37:34.820Z,15.77
2023-06-23T23:39:56.410Z,15.38
2023-06-23T23:42:18.066Z,15.65
2023-06-23T23:44:39.784Z,15.25
2023-06-23T23:47:01.521Z,15.85
2023-06-23T23:49:23.327Z,16.33
2023-06-23T23:51:45.196Z,16.80
2023-06-23T23:54:06.942Z,16.55
2023-06-23T23:56:28.660Z,14.75
2023-06-23T23:58:50.921Z,15.77
